createdAt,value
2023-11-24T00:04:39.756Z,8.43
2023-11-24T00:09:32.857Z,10.27
2023-11-24T00:14:26.086Z,11.07
2023-11-24T00:19:18.122Z,9.20
2023-11-24T00:24:10.371Z,12.13
2023-11-24T00:29:02.964Z,8.93
2023-11-24T00:33:55.551Z,11.63
2023-11-24T00:38:47.597Z,12.40
2023-11-24T00:43:40.456Z,16.07
2023-11-24T00:48:33.013Z,16.23
2023-11-24T00:53:30.750Z,13.40
2023-11-24T00:58:22.779Z,15.33
2023-11-24T01:03:18.037Z,9.97
2023-11-24T01:08:10.230Z,13.03
2023-11-24T01:13:04.058Z,15.23
2023-11-24T01:18:00.494Z,11.90
2023-11-24T01:22:53.213Z,13.17
2023-11-24T01:27:47.006Z,12.57
2023-11-24T01:32:40.124Z,17.20
2023-11-24T01:37:32.643Z,14.63
2023-11-24T01:42:24.945Z,12.10
2023-11-24T01:47:17.710Z,14.57
2023-11-24T01:52:10.051Z,15.80
2023-11-24T01:57:03.636Z,8.90
2023-11-24T02:01:58.727Z,13.37
2023-11-24T02:06:52.498Z,12.90
2023-11-24T02:11:46.718Z,7.77
2023-11-24T02:16:39.382Z,11.97
2023-11-24T02:21:31.468Z,8.23
2023-11-24T02:26:26.495Z,9.67
2023-11-24T02:31:18.487Z,11.13
2023-11-24T02:36:22.666Z,18.77
2023-11-24T02:41:18.105Z,9.00
2023-11-24T02:46:17.663Z,9.30
2023-11-24T02:51:10.904Z,7.80
2023-11-24T02:56:05.473Z,10.00
2023-11-24T03:00:58.674Z,13.30
2023-11-24T03:05:55.623Z,11.37
2023-11-24T03:10:50.104Z,12.30
2023-11-24T03:15:43.142Z,14.10
2023-11-24T03:20:37.409Z,13.83
2023-11-24T03:25:30.876Z,12.00
2023-11-24T03:30:25.247Z,12.10
2023-11-24T03:35:18.741Z,9.63
2023-11-24T03:40:11.971Z,12.33
2023-11-24T03:45:04.347Z,9.37
2023-11-24T03:49:56.882Z,8.93
2023-11-24T03:54:49.163Z,10.53
2023-11-24T03:59:41.216Z,11.97
2023-11-24T04:04:35.505Z,9.60
2023-11-24T04:09:27.736Z,10.80
2023-11-24T04:14:20.240Z,10.50
2023-11-24T04:19:12.581Z,12.20
2023-11-24T04:24:04.930Z,8.70
2023-11-24T04:28:58.659Z,8.30
2023-11-24T04:33:53.648Z,5.33
2023-11-24T04:38:46.776Z,8.23
2023-11-24T04:43:40.808Z,6.80
2023-11-24T04:48:33.041Z,11.43
2023-11-24T04:53:25.270Z,10.03
2023-11-24T04:58:17.282Z,6.87
2023-11-24T05:03:09.514Z,6.17
2023-11-24T05:08:01.493Z,7.37
2023-11-24T05:12:54.957Z,6.80
2023-11-24T05:17:47.378Z,6.47
2023-11-24T05:22:41.391Z,7.43
2023-11-24T05:27:33.352Z,8.33
2023-11-24T05:32:26.257Z,7.37
2023-11-24T05:37:19.260Z,5.93
2023-11-24T05:42:12.988Z,6.13
2023-11-24T05:47:06.343Z,5.60
2023-11-24T05:51:59.393Z,5.70
2023-11-24T05:56:51.574Z,4.23
2023-11-24T06:01:51.031Z,7.33
2023-11-24T06:06:43.167Z,9.17
2023-11-24T06:11:38.071Z,9.20
2023-11-24T06:16:29.994Z,7.90
2023-11-24T06:21:22.120Z,7.50
2023-11-24T06:26:14.325Z,7.20
2023-11-24T06:31:11.467Z,5.73
2023-11-24T06:36:05.498Z,6.10
2023-11-24T06:40:59.465Z,5.80
2023-11-24T06:45:53.578Z,8.40
2023-11-24T06:50:46.250Z,9.57
2023-11-24T06:55:38.882Z,8.47
2023-11-24T07:00:31.686Z,6.27
2023-11-24T07:05:25.094Z,8.77
2023-11-24T07:10:20.900Z,6.67
2023-11-24T07:15:13.281Z,8.53
2023-11-24T07:20:12.989Z,9.03
2023-11-24T07:25:05.695Z,9.90
2023-11-24T07:29:58.312Z,8.17
2023-11-24T07:34:53.459Z,5.93
2023-11-24T07:39:46.574Z,9.47
2023-11-24T07:44:39.074Z,7.43
2023-11-24T07:49:32.014Z,8.53
2023-11-24T07:54:27.756Z,11.27
2023-11-24T07:59:22.188Z,9.57
2023-11-24T08:04:15.444Z,9.23
2023-11-24T08:09:09.941Z,6.50
2023-11-24T08:14:04.883Z,6.00
2023-11-24T08:18:59.391Z,5.20
2023-11-24T08:23:51.794Z,3.47
2023-11-24T08:28:45.478Z,2.00
2023-11-24T08:33:39.892Z,6.00
2023-11-24T08:38:36.390Z,5.97
2023-11-24T08:43:30.793Z,4.00
2023-11-24T08:48:24.796Z,3.37
2023-11-24T08:53:17.236Z,2.10
2023-11-24T09:03:20.310Z,2.67
2023-11-24T09:08:20.473Z,4.57
2023-11-24T09:23:29.882Z,7.00
2023-11-24T09:43:53.517Z,4.83
2023-11-24T09:53:57.320Z,9.87
2023-11-24T10:04:04.357Z,9.57
2023-11-24T10:09:07.297Z,5.27
2023-11-24T10:14:00.593Z,5.40
2023-11-24T10:24:08.114Z,5.63
2023-11-24T10:34:15.089Z,4.57
2023-11-24T10:39:15.037Z,6.17
2023-11-24T10:49:43.836Z,3.60
2023-11-24T10:54:41.784Z,5.47
2023-11-24T10:59:40.253Z,4.03
2023-11-24T11:04:42.554Z,3.37
2023-11-24T11:09:50.335Z,2.30
2023-11-24T11:20:05.148Z,4.50
2023-11-24T11:25:35.129Z,3.50
2023-11-24T11:30:30.800Z,6.20
2023-11-24T11:35:30.134Z,3.50
2023-11-24T11:40:25.442Z,5.60
2023-11-24T11:45:31.697Z,2.97
2023-11-24T11:50:27.306Z,3.70
2023-11-24T11:55:25.119Z,2.50
2023-11-24T12:00:18.214Z,4.27
2023-11-24T12:05:16.279Z,3.90
2023-11-24T12:10:12.989Z,4.33
2023-11-24T12:15:09.445Z,5.90
2023-11-24T12:32:20.172Z,1.87
2023-11-24T12:37:13.795Z,2.00
2023-11-24T12:42:08.701Z,1.67
2023-11-24T12:47:13.145Z,1.83
2023-11-24T12:52:06.818Z,2.37
2023-11-24T12:57:02.576Z,3.13
2023-11-24T13:02:00.344Z,3.83
2023-11-24T13:06:54.319Z,5.47
2023-11-24T13:11:48.128Z,7.10
2023-11-24T13:16:42.379Z,4.57
2023-11-24T13:21:35.432Z,4.00
2023-11-24T13:26:29.400Z,7.03
2023-11-24T13:31:23.291Z,3.93
2023-11-24T13:36:18.437Z,7.07
2023-11-24T13:41:13.718Z,6.53
2023-11-24T13:46:07.838Z,7.37
2023-11-24T13:51:04.711Z,4.90
2023-11-24T13:55:58.940Z,7.87
2023-11-24T14:00:57.476Z,4.93
2023-11-24T14:12:08.332Z,7.67
2023-11-24T14:17:03.756Z,5.43
2023-11-24T14:22:00.464Z,7.10
2023-11-24T14:26:55.849Z,8.00
2023-11-24T14:31:51.812Z,7.03
2023-11-24T14:36:46.584Z,10.90
2023-11-24T14:41:40.346Z,8.33
2023-11-24T14:46:40.786Z,7.60
2023-11-24T14:51:37.366Z,5.77
2023-11-24T14:56:32.312Z,6.53
2023-11-24T15:01:29.386Z,9.93
2023-11-24T15:06:26.748Z,6.63
2023-11-24T15:11:22.285Z,5.90
2023-11-24T16:36:02.010Z,3.93
2023-11-24T16:46:34.932Z,3.87
2023-11-24T16:51:35.469Z,2.83
2023-11-24T19:03:52.180Z,6.57
2023-11-24T19:32:43.437Z,7.10
2023-11-24T19:44:21.127Z,5.97
2023-11-24T20:05:57.235Z,6.60
2023-11-24T20:11:14.777Z,8.23
